Time;durP1;ratioP1;P1;durP2;ratioP2;P2;SDS_P1;SDS_P2;PMS_P1;PMS_P2;Temp;Humidity;BMP_temperature;BMP_pressure;BME280_temperature;BME280_humidity;BME280_pressure;Samples;Min_cycle;Max_cycle;Signal;HPM_P1;HPM_P2
2024/05/01 00:01:43;;;;;;;25.38;4.03;;;15.90;48.70;;;11.91;71.05;94762.13;5266734;27;20383;-47
2024/05/01 00:04:09;;;;;;;26.98;5.15;;;15.90;48.60;;;11.94;72.12;94759.69;5265505;27;20009;-46
2024/05/01 00:06:35;;;;;;;33.42;5.13;;;15.90;48.50;;;11.93;73.41;94755.41;5232572;27;20016;-47
2024/05/01 00:09:00;;;;;;;24.08;4.30;;;15.90;48.60;;;11.91;74.26;94759.47;5259844;27;20058;-45
2024/05/01 00:11:26;;;;;;;32.80;4.75;;;16.00;48.60;;;11.89;74.76;94761.66;5250533;27;20010;-47
2024/05/01 00:13:52;;;;;;;30.92;4.25;;;15.90;48.70;;;11.91;75.23;94754.13;5290372;27;20037;-46
2024/05/01 00:16:18;;;;;;;28.33;4.03;;;16.00;48.80;;;11.93;75.23;94754.63;5242569;27;20025;-49
2024/05/01 00:18:43;;;;;;;26.50;3.90;;;16.00;48.90;;;11.97;75.99;94747.59;5274390;27;20490;-47
2024/05/01 00:21:09;;;;;;;27.67;4.93;;;16.00;48.90;;;11.94;74.60;94749.00;5262896;27;20010;-46
2024/05/01 00:23:35;;;;;;;31.40;4.70;;;16.00;49.00;;;11.99;73.92;94748.13;5262293;27;20046;-47
2024/05/01 00:26:01;;;;;;;25.33;4.05;;;16.00;49.00;;;12.00;74.48;94741.69;5274058;27;20024;-48
2024/05/01 00:28:27;;;;;;;33.42;5.30;;;16.00;49.00;;;11.99;75.37;94740.13;5254250;27;20017;-49
2024/05/01 00:30:53;;;;;;;27.27;5.30;;;16.00;49.00;;;12.01;75.20;94749.41;5265442;27;20016;-49
2024/05/01 00:33:18;;;;;;;27.20;5.45;;;16.00;49.00;;;12.00;70.38;94744.34;5271936;27;20360;-47
2024/05/01 00:35:44;;;;;;;23.25;4.57;;;16.10;48.90;;;12.15;74.46;94732.63;5257097;27;20035;-46
2024/05/01 00:38:10;;;;;;;27.67;4.85;;;16.10;49.00;;;12.14;75.47;94736.41;5265110;27;20009;-46
2024/05/01 00:40:36;;;;;;;22.13;4.60;;;16.10;49.10;;;12.13;73.94;94722.25;5250838;27;20539;-48
2024/05/01 00:43:01;;;;;;;24.90;4.18;;;16.10;49.10;;;12.14;72.71;94731.06;5251182;27;20021;-46
2024/05/01 00:45:27;;;;;;;28.13;4.05;;;16.10;49.00;;;12.07;72.45;94734.13;5251929;27;20088;-47
2024/05/01 00:47:57;;;;;;;22.67;3.85;;;16.10;48.90;;;12.05;74.08;94728.25;5286604;27;20009;-46
2024/05/01 00:50:28;;;;;;;27.50;4.68;;;16.10;49.10;;;12.02;74.77;94718.97;5246062;27;20021;-48
2024/05/01 00:52:59;;;;;;;22.25;4.32;;;16.10;49.10;;;11.93;75.63;94719.94;5264225;27;20476;-46
2024/05/01 00:55:27;;;;;;;22.20;4.45;;;16.10;49.20;;;11.84;76.13;94716.31;5217714;27;20373;-46
2024/05/01 00:57:59;;;;;;;24.45;5.47;;;16.00;49.10;;;11.76;77.26;94713.25;5268827;27;20075;-51
2024/05/01 01:00:25;;;;;;;26.20;5.87;;;16.00;49.30;;;11.74;77.36;94717.28;5251745;27;20006;-50
2024/05/01 01:02:51;;;;;;;22.25;4.80;;;15.90;49.20;;;11.64;78.23;94710.25;5260697;27;20009;-46
2024/05/01 01:05:18;;;;;;;32.40;4.32;;;15.90;49.40;;;11.63;77.98;94713.22;5265434;27;20358;-49
2024/05/01 01:07:44;;;;;;;25.13;5.07;;;15.80;49.40;;;11.57;77.19;94718.63;5260454;27;20057;-47
2024/05/01 01:10:11;;;;;;;35.35;4.35;;;15.80;49.50;;;11.43;78.10;94712.44;5269822;27;20079;-47
2024/05/01 01:12:37;;;;;;;23.17;4.60;;;15.70;49.60;;;11.42;80.36;94710.88;5275954;27;20087;-46
2024/05/01 01:15:04;;;;;;;27.45;4.97;;;15.60;49.70;;;11.39;78.29;94706.13;5260936;27;20484;-49
2024/05/01 01:17:30;;;;;;;25.98;4.18;;;15.60;49.80;;;11.27;79.37;94708.44;5269574;27;20025;-49
2024/05/01 01:19:56;;;;;;;23.30;5.00;;;15.50;49.80;;;11.22;78.77;94698.66;5256793;27;20025;-46
2024/05/01 01:22:22;;;;;;;15.73;3.50;;;15.50;50.00;;;11.21;77.30;94699.72;5259691;27;20005;-46
2024/05/01 01:24:49;;;;;;;23.88;3.97;;;15.40;50.00;;;11.20;78.03;94694.69;5250368;27;20005;-46
2024/05/01 01:27:14;;;;;;;25.05;4.32;;;15.40;50.10;;;11.17;78.17;94703.25;5254827;27;20017;-46
2024/05/01 01:29:41;;;;;;;21.58;4.28;;;15.30;50.10;;;11.03;80.27;94697.84;5259447;27;20555;-49
2024/05/01 01:32:07;;;;;;;19.27;4.63;;;15.30;50.20;;;10.93;80.97;94695.31;5269494;27;20435;-46
2024/05/01 01:34:33;;;;;;;21.10;4.03;;;15.20;50.30;;;10.84;81.34;94690.66;5248879;27;20106;-48
2024/05/01 01:36:59;;;;;;;23.38;3.92;;;15.20;50.40;;;10.81;80.57;94682.44;5275350;27;20484;-49
2024/05/01 01:39:24;;;;;;;21.05;3.88;;;15.10;50.40;;;10.72;81.15;94678.81;5239178;27;20058;-48
2024/05/01 01:41:50;;;;;;;25.50;3.92;;;15.00;50.50;;;10.71;81.19;94669.25;5265694;27;20087;-47
2024/05/01 01:44:16;;;;;;;25.50;4.63;;;14.90;50.50;;;10.67;80.82;94665.59;5246520;27;20026;-48
2024/05/01 01:46:42;;;;;;;20.58;3.60;;;14.90;50.60;;;10.58;80.81;94663.56;5260132;27;20102;-48
2024/05/01 01:49:08;;;;;;;19.70;3.55;;;14.80;50.60;;;10.50;81.48;94666.88;5256216;27;20011;-45
2024/05/01 01:51:33;;;;;;;20.48;4.13;;;14.80;50.80;;;10.41;83.18;94672.03;5263131;27;20030;-46
2024/05/01 01:53:59;;;;;;;23.02;3.88;;;14.70;50.90;;;10.40;81.93;94672.31;5259313;27;20144;-46
2024/05/01 01:56:25;;;;;;;17.30;3.95;;;14.70;51.00;;;10.44;81.77;94667.22;5259836;27;20359;-50
2024/05/01 01:58:51;;;;;;;18.60;3.70;;;14.70;51.10;;;10.41;83.49;94671.25;5256422;27;20421;-49
2024/05/01 02:01:17;;;;;;;25.52;3.85;;;14.60;51.10;;;10.36;83.68;94663.31;5265069;27;20077;-48
2024/05/01 02:03:49;;;;;;;23.83;3.70;;;14.60;51.20;;;10.35;83.27;94670.50;5252716;27;20476;-47
2024/05/01 02:06:16;;;;;;;22.83;3.80;;;14.60;51.30;;;10.30;83.12;94670.56;5266962;27;20019;-47
2024/05/01 02:08:43;;;;;;;15.90;3.50;;;14.50;51.30;;;10.28;82.20;94678.06;5257098;27;20109;-46
2024/05/01 02:11:14;;;;;;;26.60;4.30;;;14.50;51.30;;;10.23;82.50;94663.97;5267880;27;20006;-46
2024/05/01 02:13:43;;;;;;;19.85;4.25;;;14.40;51.40;;;10.15;83.99;94663.53;5256815;27;20021;-46
2024/05/01 02:16:11;;;;;;;19.63;3.63;;;14.40;51.60;;;10.17;84.87;94655.25;5244575;27;20387;-46
2024/05/01 02:18:37;;;;;;;22.23;3.83;;;14.40;51.70;;;10.13;84.01;94646.25;5272419;27;20340;-46
2024/05/01 02:21:04;;;;;;;21.92;3.35;;;14.30;51.60;;;10.11;83.58;94653.72;5260580;27;20112;-45
2024/05/01 02:23:29;;;;;;;22.35;4.38;;;14.30;51.70;;;10.05;84.92;94652.19;5261954;27;20014;-46
2024/05/01 02:25:55;;;;;;;20.02;3.95;;;14.20;51.70;;;9.85;87.57;94650.56;5276682;27;20024;-47
2024/05/01 02:28:21;;;;;;;25.77;4.85;;;14.20;51.90;;;9.80;86.87;94661.25;5251939;27;20591;-46
2024/05/01 02:30:47;;;;;;;21.08;4.13;;;14.10;51.90;;;9.75;85.43;94658.66;5269629;27;20472;-45
2024/05/01 02:33:14;;;;;;;24.00;4.57;;;14.00;52.00;;;9.74;84.59;94665.81;5218382;27;20014;-48
2024/05/01 02:35:40;;;;;;;21.67;3.80;;;14.00;52.00;;;9.70;84.49;94659.47;5273723;27;20014;-45
2024/05/01 02:38:08;;;;;;;20.85;3.60;;;14.00;52.10;;;9.66;86.55;94651.28;5235854;27;20028;-46
2024/05/01 02:40:35;;;;;;;18.70;3.15;;;13.90;52.20;;;9.67;85.71;94649.41;5268790;27;20482;-47
2024/05/01 02:43:03;;;;;;;15.60;3.60;;;13.90;52.20;;;9.66;86.22;94650.47;5250777;27;20009;-49
2024/05/01 02:45:30;;;;;;;22.00;3.53;;;13.90;52.40;;;9.59;87.74;94658.78;5246568;27;20476;-49
2024/05/01 02:47:56;;;;;;;23.08;4.43;;;13.80;52.40;;;9.46;89.37;94657.56;5267811;27;20079;-46
2024/05/01 02:50:22;;;;;;;22.80;3.55;;;13.80;52.50;;;9.31;91.12;94647.06;5252115;27;20018;-46
2024/05/01 02:52:48;;;;;;;27.15;4.22;;;13.70;52.60;;;9.29;89.12;94654.53;5273214;27;20023;-48
2024/05/01 02:55:14;;;;;;;24.48;4.32;;;13.70;52.70;;;9.25;89.81;94651.63;5244264;27;20010;-52
2024/05/01 02:57:41;;;;;;;26.80;4.22;;;13.60;52.80;;;9.24;88.92;94643.94;5276311;27;20483;-45
2024/05/01 03:00:09;;;;;;;24.35;4.72;;;13.60;52.90;;;9.26;88.69;94639.91;5248780;27;20015;-48
2024/05/01 03:02:34;;;;;;;21.17;4.55;;;13.60;53.00;;;9.16;91.31;94634.69;5257919;27;20371;-47
2024/05/01 03:05:00;;;;;;;31.48;5.90;;;13.50;53.00;;;9.15;89.66;94634.97;5268952;27;20025;-46
2024/05/01 03:07:26;;;;;;;28.05;4.93;;;13.50;53.10;;;9.12;89.36;94631.03;5255571;27;20018;-50
2024/05/01 03:09:52;;;;;;;30.38;5.38;;;13.50;53.30;;;9.12;89.99;94620.41;5257978;27;20377;-46
2024/05/01 03:12:17;;;;;;;21.23;4.35;;;13.40;53.30;;;9.02;90.74;94617.78;5254708;27;20010;-47
2024/05/01 03:14:43;;;;;;;34.55;4.97;;;13.40;53.50;;;8.99;90.20;94619.16;5270599;27;20024;-46
2024/05/01 03:17:09;;;;;;;30.08;4.53;;;13.30;53.50;;;8.99;90.08;94618.34;5262729;27;20033;-47
2024/05/01 03:19:35;;;;;;;28.83;5.13;;;13.30;53.50;;;8.97;90.74;94612.53;5251088;27;20006;-46
2024/05/01 03:22:00;;;;;;;23.15;4.60;;;13.30;53.60;;;8.92;91.40;94607.25;5254556;27;20079;-45
2024/05/01 03:24:26;;;;;;;29.20;4.70;;;13.30;53.80;;;8.91;90.53;94608.34;5249600;27;20010;-46
2024/05/01 03:26:52;;;;;;;24.10;4.78;;;13.20;53.80;;;8.91;90.89;94609.13;5248737;27;20006;-46
2024/05/01 03:29:18;;;;;;;32.35;5.20;;;13.20;53.90;;;8.91;91.20;94603.81;5247643;27;20441;-49
2024/05/01 03:31:44;;;;;;;31.63;4.53;;;13.20;54.00;;;8.91;91.62;94609.13;5271336;27;20017;-48
2024/05/01 03:34:10;;;;;;;31.23;4.57;;;13.20;54.00;;;8.90;90.61;94598.75;5243342;27;20065;-46
2024/05/01 03:36:35;;;;;;;32.30;5.32;;;13.20;54.00;;;8.86;91.20;94595.88;5270470;27;20088;-46
2024/05/01 03:39:01;;;;;;;30.63;5.38;;;13.10;54.70;;;8.90;90.27;94598.75;5270071;27;20426;-46
2024/05/01 03:41:27;;;;;;;24.65;4.63;;;13.10;54.20;;;8.84;91.82;94595.38;5258826;27;20010;-48
2024/05/01 03:43:53;;;;;;;24.70;4.63;;;13.20;54.30;;;8.89;92.00;94597.19;5255231;27;20017;-47
2024/05/01 03:46:19;;;;;;;26.45;4.45;;;13.20;54.30;;;8.80;92.96;94586.34;5244220;27;20039;-46
2024/05/01 03:48:45;;;;;;;25.25;4.57;;;13.20;54.30;;;8.70;94.22;94589.88;5265317;27;20383;-47
2024/05/01 03:51:10;;;;;;;30.60;4.93;;;13.10;54.30;;;8.73;93.87;94593.84;5252550;27;20009;-47
2024/05/01 03:53:39;;;;;;;29.98;6.18;;;13.00;54.30;;;8.80;91.68;94583.72;5264352;27;20014;-51
2024/05/01 03:56:05;;;;;;;28.15;4.72;;;13.10;54.60;;;8.90;91.23;94583.66;5270254;27;20012;-52
2024/05/01 03:58:31;;;;;;;24.40;5.35;;;13.10;54.50;;;8.92;92.11;94581.50;5253542;27;20508;-45
2024/05/01 04:00:57;;;;;;;28.92;5.28;;;13.10;54.50;;;8.92;92.66;94576.19;5273068;27;20009;-45
2024/05/01 04:03:23;;;;;;;30.90;4.93;;;13.10;54.60;;;8.93;92.57;94572.47;5246718;27;20022;-46
2024/05/01 04:05:49;;;;;;;33.30;6.25;;;13.10;54.60;;;8.93;91.54;94577.78;5277580;27;20020;-46
2024/05/01 04:08:16;;;;;;;33.90;4.97;;;13.10;54.60;;;8.90;92.38;94573.03;5249496;27;20010;-48
2024/05/01 04:10:42;;;;;;;26.05;5.15;;;13.10;54.60;;;8.91;92.66;94576.47;5279304;27;20021;-49
2024/05/01 04:13:08;;;;;;;27.77;5.00;;;13.10;54.60;;;8.94;93.11;94575.91;5271914;27;20502;-47
2024/05/01 04:18:05;;;;;;;27.75;4.88;;;13.20;54.80;;;8.88;95.41;94561.09;5247229;27;20617;-49
2024/05/01 04:20:30;;;;;;;23.40;4.72;;;13.20;54.80;;;8.93;96.33;94567.16;5243263;27;20010;-53
2024/05/01 04:22:56;;;;;;;28.67;5.72;;;13.20;54.90;;;8.99;96.35;94559.91;5246004;27;20021;-49
2024/05/01 04:25:22;;;;;;;34.88;5.25;;;13.20;55.00;;;9.08;94.86;94560.13;5252859;27;20013;-50
2024/05/01 04:27:48;;;;;;;32.05;5.55;;;13.30;55.10;;;9.11;94.56;94556.91;5249920;27;20037;-57
2024/05/01 04:30:14;;;;;;;27.30;5.63;;;13.30;55.10;;;9.15;94.52;94558.72;5250154;27;20017;-54
2024/05/01 04:32:40;;;;;;;29.30;5.95;;;13.40;55.20;;;9.23;93.74;94552.00;5244437;27;20019;-52
2024/05/01 04:35:06;;;;;;;25.70;5.60;;;13.40;55.20;;;9.29;93.92;94553.53;5246003;27;20009;-52
2024/05/01 04:37:32;;;;;;;34.70;6.00;;;13.50;55.20;;;9.35;93.51;94552.41;5242425;27;20015;-53
2024/05/01 04:39:58;;;;;;;35.50;5.13;;;13.50;55.20;;;9.37;93.23;94557.44;5250292;27;20376;-51
2024/05/01 04:42:23;;;;;;;34.60;5.90;;;13.60;55.10;;;9.35;94.42;94560.38;5241368;27;20006;-48
2024/05/01 04:44:49;;;;;;;29.98;5.25;;;13.60;55.10;;;9.36;94.53;94579.78;5241555;27;20476;-49
2024/05/01 04:47:15;;;;;;;29.67;5.57;;;13.60;55.10;;;9.37;93.89;94571.53;5239193;27;20018;-53
2024/05/01 04:49:41;;;;;;;25.45;4.47;;;13.70;55.10;;;9.37;92.76;94571.53;5249785;27;20026;-51
2024/05/01 04:52:07;;;;;;;18.17;5.03;;;13.70;55.00;;;9.37;95.52;94563.56;5232740;27;20594;-50
2024/05/01 04:54:33;;;;;;;33.45;4.75;;;13.80;55.00;;;9.39;96.35;94555.31;5245104;27;20014;-52
2024/05/01 04:56:58;;;;;;;38.53;6.35;;;13.80;55.00;;;9.38;96.23;94551.84;5244676;27;20010;-50
2024/05/01 04:59:24;;;;;;;35.38;5.45;;;13.80;55.10;;;9.43;97.14;94554.47;5240236;27;20021;-57
2024/05/01 05:01:50;;;;;;;32.88;5.20;;;13.90;55.20;;;9.54;96.78;94546.38;5250742;27;20010;-54
2024/05/01 05:04:16;;;;;;;32.13;5.60;;;13.90;55.20;;;9.68;94.12;94542.75;5253417;27;20013;-52
2024/05/01 05:06:51;;;;;;;30.05;5.07;;;14.00;55.20;;;9.93;90.81;94535.53;5249795;27;20017;-48
2024/05/01 05:09:17;;;;;;;33.28;5.72;;;14.20;55.40;;;10.16;90.35;94523.28;5249720;27;20020;-54
2024/05/01 05:11:43;;;;;;;33.50;5.88;;;14.30;55.20;;;10.34;89.87;94527.84;5253064;27;20493;-51
2024/05/01 05:14:09;;;;;;;28.17;5.68;;;14.50;55.20;;;10.50;88.77;94522.28;5240966;27;20011;-47
2024/05/01 05:16:35;;;;;;;33.25;6.25;;;14.70;55.10;;;10.67;87.45;94533.22;5252102;27;20007;-47
2024/05/01 05:19:04;;;;;;;29.83;5.65;;;14.80;54.80;;;10.85;86.23;94529.72;5254320;27;20025;-52
2024/05/01 05:21:30;;;;;;;28.33;6.45;;;15.00;54.70;;;10.98;86.27;94530.06;5248219;27;20021;-48
2024/05/01 05:23:56;;;;;;;24.38;6.00;;;15.20;54.40;;;11.07;85.61;94536.31;5242153;27;20011;-51
2024/05/01 05:26:22;;;;;;;26.83;5.38;;;15.40;54.10;;;11.15;84.90;94530.28;5230284;27;20493;-55
2024/05/01 05:28:48;;;;;;;27.00;5.47;;;15.50;53.80;;;11.24;84.20;94535.75;5232669;27;20569;-53
2024/05/01 05:31:14;;;;;;;25.05;5.35;;;15.60;53.50;;;11.26;83.11;94526.38;5205523;27;20042;-53
2024/05/01 05:33:44;;;;;;;30.75;5.28;;;15.80;53.30;;;11.34;81.99;94535.56;5221482;27;20011;-51
2024/05/01 05:36:11;;;;;;;31.65;6.15;;;15.90;53.10;;;11.46;82.01;94541.19;5254892;27;20653;-48
2024/05/01 05:38:36;;;;;;;31.52;6.03;;;16.00;52.80;;;11.60;81.01;94541.22;5249182;27;20017;-49
2024/05/01 05:41:02;;;;;;;28.88;5.55;;;16.20;52.70;;;11.72;79.93;94530.84;5242003;27;20010;-48
2024/05/01 05:43:28;;;;;;;33.63;5.80;;;16.30;52.40;;;11.89;79.50;94527.59;5241474;27;20011;-47
2024/05/01 05:45:54;;;;;;;25.90;5.75;;;16.50;52.20;;;12.09;78.91;94531.72;5255584;27;20145;-48
2024/05/01 05:48:20;;;;;;;28.15;5.22;;;16.70;52.00;;;12.26;78.74;94531.91;5252073;27;20030;-51
2024/05/01 05:50:46;;;;;;;23.95;5.38;;;17.00;51.90;;;12.44;78.41;94518.69;5256006;27;20025;-53
2024/05/01 05:53:12;;;;;;;22.15;4.85;;;17.20;51.60;;;12.63;78.05;94518.53;5245812;27;20024;-51
2024/05/01 05:55:40;;;;;;;34.97;5.40;;;17.40;51.40;;;12.83;78.13;94517.28;5255332;27;20006;-51
2024/05/01 05:58:06;;;;;;;31.13;5.28;;;17.70;51.20;;;12.84;79.55;94514.28;5246570;27;20026;-53
2024/05/01 06:00:32;;;;;;;21.30;4.55;;;17.90;51.10;;;13.10;78.13;94508.31;5256134;27;20010;-48
2024/05/01 06:02:57;;;;;;;24.20;5.60;;;18.10;50.80;;;13.34;78.81;94508.00;5215304;27;20020;-53
2024/05/01 06:05:23;;;;;;;24.35;4.78;;;18.30;50.70;;;13.53;76.44;94495.16;5240603;27;20347;-48
2024/05/01 06:07:49;;;;;;;31.02;4.70;;;18.50;50.40;;;13.78;75.68;94490.22;5249174;27;20017;-50
2024/05/01 06:10:15;;;;;;;32.05;5.10;;;18.70;50.20;;;14.00;77.60;94500.03;5246883;27;20022;-49
2024/05/01 06:12:44;;;;;;;25.25;5.68;;;18.90;50.20;;;14.17;75.57;94500.09;5253397;27;20432;-52
2024/05/01 06:15:10;;;;;;;26.42;5.68;;;19.10;49.90;;;14.35;74.83;94501.69;5242968;27;20006;-47
2024/05/01 06:17:37;;;;;;;26.58;5.28;;;19.30;49.70;;;14.49;72.33;94501.53;5251731;27;20017;-50
2024/05/01 06:20:04;;;;;;;24.85;4.40;;;19.50;49.40;;;14.60;72.00;94502.00;5246875;27;20006;-50
2024/05/01 06:22:30;;;;;;;26.35;5.07;;;19.60;49.20;;;14.72;72.77;94501.38;5244242;27;20010;-52
2024/05/01 06:24:56;;;;;;;34.22;5.85;;;19.70;49.00;;;14.85;73.43;94500.41;5247127;27;20372;-46
2024/05/01 06:27:23;;;;;;;30.70;5.85;;;19.90;49.00;;;14.98;73.72;94504.06;5246268;27;20007;-52
2024/05/01 06:29:49;;;;;;;31.80;5.70;;;20.00;48.80;;;15.01;72.33;94500.72;5257093;27;20400;-49
2024/05/01 06:32:15;;;;;;;27.35;5.30;;;20.10;48.70;;;14.97;73.05;94505.13;5246942;27;20354;-48
2024/05/01 06:34:41;;;;;;;25.20;5.63;;;20.10;48.40;;;14.98;72.08;94491.44;5241342;27;20022;-51
2024/05/01 06:37:07;;;;;;;38.60;5.95;;;20.20;48.30;;;15.09;71.98;94493.78;5239371;27;20017;-50
2024/05/01 06:39:33;;;;;;;29.90;5.95;;;20.30;48.20;;;15.16;71.47;94486.00;5248605;27;20025;-50
2024/05/01 06:41:59;;;;;;;35.20;5.40;;;20.30;48.00;;;15.25;71.11;94481.41;5254492;27;20014;-46
2024/05/01 06:44:25;;;;;;;26.40;6.03;;;20.50;47.80;;;15.39;69.99;94489.28;5238458;27;20003;-55
2024/05/01 06:46:51;;;;;;;37.40;5.93;;;20.60;47.70;;;15.55;71.17;94478.81;5251030;27;20063;-45
2024/05/01 06:49:17;;;;;;;24.58;4.85;;;20.70;47.60;;;15.69;71.59;94477.47;5256469;27;20014;-46
2024/05/01 06:51:43;;;;;;;28.65;5.43;;;20.90;47.60;;;15.86;70.34;94476.63;5241625;27;20014;-49
2024/05/01 06:54:09;;;;;;;22.67;5.22;;;21.20;47.40;;;16.21;69.72;94470.25;5252446;27;20013;-49
2024/05/01 06:56:35;;;;;;;29.55;5.82;;;21.50;47.10;;;16.67;69.10;94469.25;5235721;27;20072;-48
2024/05/01 06:59:01;;;;;;;27.05;5.82;;;22.00;46.80;;;17.16;61.24;94452.50;5248562;27;20038;-48
2024/05/01 07:01:27;;;;;;;33.25;6.28;;;22.60;46.00;;;17.70;56.93;94449.66;5252605;27;20493;-47
2024/05/01 07:03:53;;;;;;;36.55;5.90;;;23.20;44.80;;;18.23;53.52;94453.22;5234892;27;20464;-46
2024/05/01 07:06:18;;;;;;;30.02;5.43;;;23.80;43.60;;;18.80;52.42;94456.78;5245141;27;20411;-47
2024/05/01 07:08:44;;;;;;;21.90;5.07;;;24.30;42.70;;;19.31;53.00;94451.59;5241060;27;20096;-46
2024/05/01 07:11:10;;;;;;;25.20;5.57;;;24.80;42.00;;;19.76;50.02;94450.41;5242803;27;20017;-47
2024/05/01 07:13:36;;;;;;;33.38;7.15;;;25.20;41.20;;;20.19;47.54;94445.97;5251583;27;20014;-48
2024/05/01 07:16:04;;;;;;;23.90;5.57;;;25.70;40.20;;;20.67;46.90;94452.03;5242152;27;20015;-49
2024/05/01 07:18:30;;;;;;;33.80;7.03;;;26.30;39.50;;;21.19;45.14;94445.28;5247008;27;20006;-53
2024/05/01 07:20:55;;;;;;;24.15;5.75;;;26.80;38.70;;;21.72;45.96;94442.75;5244028;27;20017;-50
2024/05/01 07:23:22;;;;;;;33.20;5.85;;;27.30;38.20;;;22.19;44.06;94441.53;5236232;27;20010;-48
2024/05/01 07:25:48;;;;;;;24.63;5.50;;;27.80;37.50;;;22.42;40.32;94444.19;5236302;27;20021;-53
2024/05/01 07:28:14;;;;;;;23.05;5.25;;;28.30;36.20;;;22.67;40.20;94441.78;5238843;27;20022;-53
2024/05/01 07:30:40;;;;;;;24.83;5.18;;;28.70;35.40;;;23.02;39.86;94433.28;5249608;27;20365;-51
2024/05/01 07:33:08;;;;;;;25.35;5.50;;;29.10;34.60;;;23.54;37.24;94433.41;5234290;27;20018;-50
2024/05/01 07:35:34;;;;;;;19.02;5.53;;;29.50;33.40;;;23.82;34.92;94438.34;5240796;27;20080;-50
2024/05/01 07:38:00;;;;;;;18.65;5.65;;;29.90;32.30;;;24.01;34.72;94432.66;5234617;27;20019;-46
2024/05/01 07:40:26;;;;;;;21.90;4.88;;;30.30;31.60;;;24.12;34.98;94432.72;5242811;27;20054;-52
2024/05/01 07:42:52;;;;;;;18.52;4.85;;;30.60;31.00;;;24.19;34.76;94431.97;5244429;27;20070;-49
2024/05/01 07:45:18;;;;;;;21.30;5.05;;;30.90;30.40;;;24.30;34.92;94424.66;5237897;27;20006;-56
2024/05/01 07:47:43;;;;;;;15.10;4.88;;;31.10;29.90;;;24.63;35.20;94425.63;5239820;27;20011;-51
2024/05/01 07:50:10;;;;;;;20.17;5.25;;;31.40;29.60;;;24.91;34.39;94430.41;5245179;27;20457;-48
2024/05/01 07:52:36;;;;;;;18.92;5.10;;;31.60;29.20;;;25.28;33.98;94429.38;5240485;27;20025;-48
2024/05/01 07:55:04;;;;;;;19.52;5.18;;;31.80;28.80;;;25.54;33.00;94423.59;5241921;27;20011;-46
2024/05/01 07:57:30;;;;;;;18.45;4.95;;;31.90;28.50;;;25.70;33.65;94423.22;5242718;27;20015;-51
2024/05/01 07:59:56;;;;;;;20.95;5.10;;;31.80;28.40;;;25.45;34.92;94416.97;5243550;27;20087;-51
2024/05/01 08:02:22;;;;;;;20.48;5.20;;;31.60;28.60;;;25.16;34.16;94411.44;5246904;27;20006;-50
2024/05/01 08:04:48;;;;;;;18.92;5.50;;;31.50;28.40;;;25.23;34.39;94408.75;5237316;27;20010;-50
2024/05/01 08:07:14;;;;;;;19.05;4.95;;;31.30;28.30;;;25.23;34.48;94411.47;5251759;27;20092;-50
2024/05/01 08:09:39;;;;;;;16.27;4.68;;;31.20;28.80;;;25.14;34.63;94408.34;5241407;27;20081;-48
2024/05/01 08:12:06;;;;;;;15.38;4.63;;;31.00;28.30;;;25.02;35.90;94403.22;5252143;27;20010;-47
2024/05/01 08:14:32;;;;;;;18.40;4.85;;;31.00;28.60;;;25.04;36.42;94409.84;5247495;27;20013;-50
2024/05/01 08:16:59;;;;;;;28.30;5.70;;;31.00;28.80;;;24.02;36.28;94403.50;5236455;27;20010;-47
2024/05/01 08:19:25;;;;;;;13.15;5.38;;;31.10;28.40;;;24.75;35.51;94397.28;5242446;27;20021;-53
2024/05/01 08:21:52;;;;;;;19.33;5.57;;;31.40;28.30;;;25.26;34.73;94397.06;5239406;27;20504;-54
2024/05/01 08:24:17;;;;;;;19.48;5.50;;;31.80;28.10;;;25.71;33.94;94385.81;5245853;27;20029;-56
2024/05/01 08:26:43;;;;;;;21.27;5.68;;;32.30;27.80;;;26.11;33.05;94397.50;5243759;27;20729;-56
2024/05/01 08:29:09;;;;;;;21.58;5.78;;;32.80;27.40;;;26.55;32.38;94388.03;5242727;27;20021;-51
2024/05/01 08:31:35;;;;;;;15.52;5.03;;;33.30;27.10;;;26.77;32.39;94378.59;5250610;27;20473;-53
2024/05/01 08:34:00;;;;;;;13.57;5.50;;;33.70;26.80;;;27.30;32.32;94371.28;5239135;27;20065;-50
2024/05/01 08:36:26;;;;;;;19.55;5.85;;;34.20;26.60;;;27.46;31.10;94368.81;5251887;27;20038;-54
2024/05/01 08:38:52;;;;;;;20.23;5.50;;;34.60;26.20;;;27.84;29.93;94361.50;5210221;27;20084;-48
2024/05/01 08:41:18;;;;;;;22.10;5.10;;;34.90;25.70;;;27.92;28.28;94359.47;5248018;27;20462;-54
2024/05/01 08:43:49;;;;;;;23.15;5.97;;;35.20;25.10;;;27.85;28.49;94363.03;5242625;27;20006;-54
2024/05/01 08:46:15;;;;;;;21.02;5.07;;;35.40;24.50;;;28.26;27.95;94359.50;5236171;27;20014;-48
2024/05/01 08:48:42;;;;;;;14.73;4.95;;;35.50;24.40;;;28.59;28.22;94359.97;5249675;27;20469;-52
2024/05/01 08:51:12;;;;;;;21.85;5.28;;;35.60;24.20;;;28.16;28.61;94359.63;5239205;27;20014;-48
2024/05/01 08:53:42;;;;;;;19.63;5.05;;;35.70;24.00;;;28.42;27.98;94350.75;5246384;27;20345;-54
2024/05/01 08:56:10;;;;;;;15.90;5.47;;;35.70;23.90;;;28.69;27.91;94359.03;5234623;27;20083;-54
2024/05/01 08:58:37;;;;;;;17.38;4.70;;;35.90;23.80;;;28.94;27.17;94352.47;5236606;27;20084;-52
2024/05/01 09:01:05;;;;;;;22.85;5.30;;;36.00;23.60;;;28.86;27.89;94351.78;5245763;27;20020;-54
2024/05/01 09:03:31;;;;;;;22.85;5.13;;;36.00;23.40;;;29.28;27.81;94352.41;5231270;27;20007;-57
2024/05/01 09:05:57;;;;;;;17.38;5.00;;;36.10;23.40;;;29.43;24.49;94352.97;5242453;27;20080;-57
2024/05/01 09:08:23;;;;;;;15.05;5.88;;;36.20;23.00;;;29.73;24.34;94354.84;5238594;27;20010;-56
2024/05/01 09:11:00;;;;;;;16.90;5.55;;;36.30;22.70;;;29.99;26.17;94353.22;5238016;27;20445;-52
2024/05/01 09:13:26;;;;;;;17.38;5.45;;;36.40;22.70;;;30.19;24.82;94353.28;5248726;27;20011;-54
2024/05/01 09:15:51;;;;;;;22.52;5.50;;;36.60;22.60;;;30.02;24.47;94341.41;5229867;27;20027;-54
2024/05/01 09:18:18;;;;;;;19.05;5.90;;;36.80;22.30;;;30.22;24.76;94349.72;5249989;27;20018;-54
2024/05/01 09:20:58;;;;;;;21.48;5.72;;;36.90;22.10;;;30.25;24.95;94337.13;5244258;27;20007;-50
2024/05/01 09:23:25;;;;;;;16.20;6.05;;;37.00;21.90;;;30.73;23.93;94335.75;5240255;27;20010;-52
2024/05/01 09:25:52;;;;;;;19.25;5.47;;;37.10;21.80;;;31.06;23.59;94331.94;5238311;27;20517;-49
2024/05/01 09:28:18;;;;;;;19.83;6.00;;;37.30;21.70;;;31.25;25.22;94327.56;5237688;27;20017;-55
2024/05/01 09:30:45;;;;;;;22.20;6.03;;;37.40;21.80;;;30.80;26.24;94327.38;5250066;27;20362;-51
2024/05/01 09:33:11;;;;;;;24.13;5.60;;;37.50;21.90;;;31.21;25.54;94324.13;5230389;27;20026;-51
2024/05/01 09:35:38;;;;;;;20.67;5.95;;;37.50;21.90;;;31.14;25.42;94318.03;5250477;27;20471;-50
2024/05/01 09:38:18;;;;;;;21.27;5.65;;;37.60;21.90;;;31.35;24.20;94320.31;5216134;27;20010;-53
2024/05/01 09:40:59;;;;;;;22.90;5.82;;;37.60;21.70;;;31.31;23.68;94316.84;5212206;27;20054;-52
2024/05/01 09:43:31;;;;;;;17.38;5.40;;;37.80;21.50;;;31.41;24.71;94306.81;5237859;27;20387;-56
2024/05/01 09:46:01;;;;;;;17.63;5.40;;;37.70;21.40;;;31.35;23.37;94312.06;5233047;27;20054;-50
2024/05/01 09:48:30;;;;;;;20.83;6.07;;;37.80;21.20;;;31.48;23.48;94314.88;5251459;27;20085;-51
2024/05/01 09:51:00;;;;;;;21.15;6.22;;;37.80;21.10;;;31.03;24.51;94302.53;5236783;27;20465;-49
2024/05/01 09:53:26;;;;;;;18.15;5.85;;;37.80;21.10;;;30.93;23.66;94292.53;5233393;27;20006;-56
2024/05/01 09:55:53;;;;;;;26.38;6.10;;;37.90;20.90;;;31.07;24.79;94296.97;5212206;27;20016;-53
2024/05/01 09:58:21;;;;;;;19.08;5.97;;;37.80;21.00;;;30.94;25.53;94290.59;5241195;27;20493;-54
2024/05/01 10:00:54;;;;;;;21.63;6.53;;;37.80;21.10;;;31.11;25.83;94287.41;5246907;27;20010;-48
2024/05/01 10:03:27;;;;;;;17.40;5.97;;;37.80;21.40;;;31.35;25.57;94279.03;5235311;27;20010;-52
2024/05/01 10:05:55;;;;;;;23.88;6.80;;;37.80;21.50;;;31.37;25.97;94271.16;5243346;27;20009;-49
2024/05/01 10:08:21;;;;;;;23.95;7.07;;;37.90;21.60;;;31.04;25.78;94284.06;5201202;27;20017;-50
2024/05/01 10:10:49;;;;;;;14.43;6.10;;;37.90;21.60;;;31.09;25.10;94273.34;5243109;27;20020;-52
2024/05/01 10:13:18;;;;;;;19.58;6.43;;;38.00;21.50;;;31.54;25.59;94261.66;5245348;27;20024;-53
2024/05/01 10:15:45;;;;;;;18.00;6.38;;;38.10;21.60;;;31.69;25.25;94266.81;5241460;27;20007;-54